sensor_id;sensor_type;location;lat;lon;timestamp;temperature;humidity
14188;DHT22;7175;51.978;5.330;2022-07-11T00:00:10;17.30;99.90
14188;DHT22;7175;51.978;5.330;2022-07-11T00:02:39;17.40;99.90
14188;DHT22;7175;51.978;5.330;2022-07-11T00:05:14;17.40;99.90
14188;DHT22;7175;51.978;5.330;2022-07-11T00:07:44;17.40;99.90
14188;DHT22;7175;51.978;5.330;2022-07-11T00:10:14;17.40;99.90
14188;DHT22;7175;51.978;5.330;2022-07-11T00:12:43;17.40;99.90
14188;DHT22;7175;51.978;5.330;2022-07-11T00:15:11;17.30;99.90
14188;DHT22;7175;51.978;5.330;2022-07-11T00:17:40;17.30;99.90
14188;DHT22;7175;51.978;5.330;2022-07-11T00:20:10;17.30;99.90
14188;DHT22;7175;51.978;5.330;2022-07-11T00:22:38;17.40;99.90
14188;DHT22;7175;51.978;5.330;2022-07-11T00:25:14;17.30;99.90
14188;DHT22;7175;51.978;5.330;2022-07-11T00:27:45;17.40;99.90
14188;DHT22;7175;51.978;5.330;2022-07-11T00:30:21;17.40;99.90
14188;DHT22;7175;51.978;5.330;2022-07-11T00:32:51;17.40;99.90
14188;DHT22;7175;51.978;5.330;2022-07-11T00:35:28;17.40;99.90
14188;DHT22;7175;51.978;5.330;2022-07-11T00:38:02;17.40;99.90
14188;DHT22;7175;51.978;5.330;2022-07-11T00:40:34;17.40;99.90
14188;DHT22;7175;51.978;5.330;2022-07-11T00:43:04;17.40;99.90
14188;DHT22;7175;51.978;5.330;2022-07-11T00:45:32;17.50;99.90
14188;DHT22;7175;51.978;5.330;2022-07-11T00:48:03;17.50;99.90
14188;DHT22;7175;51.978;5.330;2022-07-11T00:50:34;17.50;99.90
14188;DHT22;7175;51.978;5.330;2022-07-11T00:53:03;17.50;99.90
14188;DHT22;7175;51.978;5.330;2022-07-11T00:55:31;17.50;99.90
14188;DHT22;7175;51.978;5.330;2022-07-11T00:58:01;17.50;99.90
14188;DHT22;7175;51.978;5.330;2022-07-11T01:00:30;17.50;99.90
14188;DHT22;7175;51.978;5.330;2022-07-11T01:02:58;17.50;99.90
14188;DHT22;7175;51.978;5.330;2022-07-11T01:05:28;17.50;99.90
14188;DHT22;7175;51.978;5.330;2022-07-11T01:07:58;17.50;99.90
14188;DHT22;7175;51.978;5.330;2022-07-11T01:10:29;17.60;99.90
14188;DHT22;7175;51.978;5.330;2022-07-11T01:12:57;17.60;99.90
14188;DHT22;7175;51.978;5.330;2022-07-11T01:15:28;17.50;99.90
14188;DHT22;7175;51.978;5.330;2022-07-11T01:17:58;17.50;99.90
14188;DHT22;7175;51.978;5.330;2022-07-11T01:20:28;17.50;99.90
14188;DHT22;7175;51.978;5.330;2022-07-11T01:23:02;17.60;99.90
14188;DHT22;7175;51.978;5.330;2022-07-11T01:25:31;17.50;99.90
14188;DHT22;7175;51.978;5.330;2022-07-11T01:28:03;17.60;99.90
14188;DHT22;7175;51.978;5.330;2022-07-11T01:30:33;17.60;99.90
14188;DHT22;7175;51.978;5.330;2022-07-11T01:33:05;17.60;99.90
14188;DHT22;7175;51.978;5.330;2022-07-11T01:35:34;17.60;99.90
14188;DHT22;7175;51.978;5.330;2022-07-11T01:38:05;17.60;99.90
14188;DHT22;7175;51.978;5.330;2022-07-11T01:40:33;17.60;99.90
14188;DHT22;7175;51.978;5.330;2022-07-11T01:43:01;17.60;99.90
14188;DHT22;7175;51.978;5.330;2022-07-11T01:45:31;17.60;99.90
14188;DHT22;7175;51.978;5.330;2022-07-11T01:48:00;17.60;99.90
14188;DHT22;7175;51.978;5.330;2022-07-11T01:50:28;17.60;99.90
14188;DHT22;7175;51.978;5.330;2022-07-11T01:52:57;17.60;99.90
14188;DHT22;7175;51.978;5.330;2022-07-11T01:55:27;17.60;99.90
14188;DHT22;7175;51.978;5.330;2022-07-11T01:57:55;17.60;99.90
14188;DHT22;7175;51.978;5.330;2022-07-11T02:00:24;17.60;99.90
14188;DHT22;7175;51.978;5.330;2022-07-11T02:02:52;17.70;99.90
14188;DHT22;7175;51.978;5.330;2022-07-11T02:05:21;17.60;99.90
14188;DHT22;7175;51.978;5.330;2022-07-11T02:07:50;17.70;99.90
14188;DHT22;7175;51.978;5.330;2022-07-11T02:10:38;17.60;99.90
14188;DHT22;7175;51.978;5.330;2022-07-11T02:13:09;17.60;99.90
14188;DHT22;7175;51.978;5.330;2022-07-11T02:15:38;17.70;99.90
14188;DHT22;7175;51.978;5.330;2022-07-11T02:18:07;17.60;99.90
14188;DHT22;7175;51.978;5.330;2022-07-11T02:20:44;17.60;99.90
14188;DHT22;7175;51.978;5.330;2022-07-11T02:23:16;17.60;99.90
14188;DHT22;7175;51.978;5.330;2022-07-11T02:25:48;17.60;99.90
14188;DHT22;7175;51.978;5.330;2022-07-11T02:28:17;17.60;99.90
14188;DHT22;7175;51.978;5.330;2022-07-11T02:30:45;17.70;99.90
14188;DHT22;7175;51.978;5.330;2022-07-11T02:33:14;17.60;99.90
14188;DHT22;7175;51.978;5.330;2022-07-11T02:35:44;17.70;99.90
14188;DHT22;7175;51.978;5.330;2022-07-11T02:38:14;17.70;99.90
14188;DHT22;7175;51.978;5.330;2022-07-11T02:40:44;17.70;99.90
14188;DHT22;7175;51.978;5.330;2022-07-11T02:43:17;17.70;99.90
14188;DHT22;7175;51.978;5.330;2022-07-11T02:45:46;17.70;99.90
14188;DHT22;7175;51.978;5.330;2022-07-11T02:48:15;17.70;99.90
14188;DHT22;7175;51.978;5.330;2022-07-11T02:50:45;17.70;99.90
14188;DHT22;7175;51.978;5.330;2022-07-11T02:53:21;17.60;99.90
14188;DHT22;7175;51.978;5.330;2022-07-11T02:55:50;17.60;99.90
14188;DHT22;7175;51.978;5.330;2022-07-11T02:58:32;17.60;99.90
14188;DHT22;7175;51.978;5.330;2022-07-11T03:01:02;17.60;99.90
14188;DHT22;7175;51.978;5.330;2022-07-11T03:03:34;17.60;99.90
14188;DHT22;7175;51.978;5.330;2022-07-11T03:06:10;17.60;99.90
14188;DHT22;7175;51.978;5.330;2022-07-11T03:08:44;17.70;99.90
14188;DHT22;7175;51.978;5.330;2022-07-11T03:11:16;17.70;99.90
14188;DHT22;7175;51.978;5.330;2022-07-11T03:13:49;17.70;99.90
14188;DHT22;7175;51.978;5.330;2022-07-11T03:16:25;17.60;99.90
14188;DHT22;7175;51.978;5.330;2022-07-11T03:18:54;17.50;99.90
14188;DHT22;7175;51.978;5.330;2022-07-11T03:21:22;17.50;99.90
14188;DHT22;7175;51.978;5.330;2022-07-11T03:24:04;17.60;99.90
14188;DHT22;7175;51.978;5.330;2022-07-11T03:26:41;17.60;99.90
14188;DHT22;7175;51.978;5.330;2022-07-11T03:29:17;17.60;99.90
14188;DHT22;7175;51.978;5.330;2022-07-11T03:32:02;17.60;99.90
14188;DHT22;7175;51.978;5.330;2022-07-11T03:34:49;17.50;99.90
14188;DHT22;7175;51.978;5.330;2022-07-11T03:37:36;17.50;99.90
14188;DHT22;7175;51.978;5.330;2022-07-11T03:40:16;17.50;99.90
14188;DHT22;7175;51.978;5.330;2022-07-11T03:42:45;17.50;99.90
14188;DHT22;7175;51.978;5.330;2022-07-11T03:45:37;17.60;99.90
14188;DHT22;7175;51.978;5.330;2022-07-11T03:48:13;17.60;99.90
14188;DHT22;7175;51.978;5.330;2022-07-11T03:50:44;17.50;99.90
14188;DHT22;7175;51.978;5.330;2022-07-11T03:53:13;17.50;99.90
14188;DHT22;7175;51.978;5.330;2022-07-11T03:55:42;17.40;99.90
14188;DHT22;7175;51.978;5.330;2022-07-11T03:58:12;17.40;99.90
14188;DHT22;7175;51.978;5.330;2022-07-11T04:00:44;17.40;99.90
14188;DHT22;7175;51.978;5.330;2022-07-11T04:03:12;17.30;99.90
14188;DHT22;7175;51.978;5.330;2022-07-11T04:05:50;17.30;99.90
14188;DHT22;7175;51.978;5.330;2022-07-11T04:08:20;17.30;99.90
14188;DHT22;7175;51.978;5.330;2022-07-11T04:10:55;17.30;99.90
14188;DHT22;7175;51.978;5.330;2022-07-11T04:13:31;17.30;99.90
14188;DHT22;7175;51.978;5.330;2022-07-11T04:16:14;17.30;99.90
14188;DHT22;7175;51.978;5.330;2022-07-11T04:18:44;17.20;99.90
14188;DHT22;7175;51.978;5.330;2022-07-11T04:21:22;17.20;99.90
14188;DHT22;7175;51.978;5.330;2022-07-11T04:23:55;17.20;99.90
14188;DHT22;7175;51.978;5.330;2022-07-11T04:26:24;17.30;99.90
14188;DHT22;7175;51.978;5.330;2022-07-11T04:28:58;17.30;99.90
14188;DHT22;7175;51.978;5.330;2022-07-11T04:31:28;17.20;99.90
14188;DHT22;7175;51.978;5.330;2022-07-11T04:34:14;17.30;99.90
14188;DHT22;7175;51.978;5.330;2022-07-11T04:36:45;17.20;99.90
14188;DHT22;7175;51.978;5.330;2022-07-11T04:39:29;17.20;99.90
14188;DHT22;7175;51.978;5.330;2022-07-11T04:42:14;17.20;99.90
14188;DHT22;7175;51.978;5.330;2022-07-11T04:44:44;17.20;99.90
14188;DHT22;7175;51.978;5.330;2022-07-11T04:47:21;17.20;99.90
14188;DHT22;7175;51.978;5.330;2022-07-11T04:49:51;17.30;99.90
14188;DHT22;7175;51.978;5.330;2022-07-11T04:52:23;17.30;99.90
14188;DHT22;7175;51.978;5.330;2022-07-11T04:55:00;17.30;99.90
14188;DHT22;7175;51.978;5.330;2022-07-11T04:57:28;17.30;99.90
14188;DHT22;7175;51.978;5.330;2022-07-11T05:00:09;17.30;99.90
14188;DHT22;7175;51.978;5.330;2022-07-11T05:03:08;17.40;99.90
14188;DHT22;7175;51.978;5.330;2022-07-11T05:05:37;17.40;99.90
14188;DHT22;7175;51.978;5.330;2022-07-11T05:08:11;17.30;99.90
14188;DHT22;7175;51.978;5.330;2022-07-11T05:10:40;17.40;99.90
14188;DHT22;7175;51.978;5.330;2022-07-11T05:13:24;17.40;99.90
14188;DHT22;7175;51.978;5.330;2022-07-11T05:16:01;17.40;99.90
14188;DHT22;7175;51.978;5.330;2022-07-11T05:18:37;17.30;99.90
14188;DHT22;7175;51.978;5.330;2022-07-11T05:21:15;17.40;99.90
14188;DHT22;7175;51.978;5.330;2022-07-11T05:23:54;17.40;99.90
14188;DHT22;7175;51.978;5.330;2022-07-11T05:26:30;17.50;99.90
14188;DHT22;7175;51.978;5.330;2022-07-11T05:29:10;17.40;99.90
14188;DHT22;7175;51.978;5.330;2022-07-11T05:31:39;17.40;99.90
14188;DHT22;7175;51.978;5.330;2022-07-11T05:34:13;17.40;99.90
14188;DHT22;7175;51.978;5.330;2022-07-11T05:36:44;17.40;99.90
14188;DHT22;7175;51.978;5.330;2022-07-11T05:39:25;17.40;99.90
14188;DHT22;7175;51.978;5.330;2022-07-11T05:42:01;17.50;99.90
14188;DHT22;7175;51.978;5.330;2022-07-11T05:44:31;17.50;99.90
14188;DHT22;7175;51.978;5.330;2022-07-11T05:47:07;17.40;99.90
14188;DHT22;7175;51.978;5.330;2022-07-11T05:49:39;17.30;99.90
14188;DHT22;7175;51.978;5.330;2022-07-11T05:52:15;17.40;99.90
14188;DHT22;7175;51.978;5.330;2022-07-11T05:54:46;17.50;99.90
14188;DHT22;7175;51.978;5.330;2022-07-11T05:57:16;17.30;99.90
14188;DHT22;7175;51.978;5.330;2022-07-11T05:59:49;17.50;99.90
14188;DHT22;7175;51.978;5.330;2022-07-11T06:02:18;17.50;99.90
14188;DHT22;7175;51.978;5.330;2022-07-11T06:04:49;17.60;99.90
14188;DHT22;7175;51.978;5.330;2022-07-11T06:10:30;17.70;99.90
14188;DHT22;7175;51.978;5.330;2022-07-11T06:13:06;17.60;99.90
14188;DHT22;7175;51.978;5.330;2022-07-11T06:15:43;17.70;99.90
14188;DHT22;7175;51.978;5.330;2022-07-11T06:18:13;17.80;99.90
14188;DHT22;7175;51.978;5.330;2022-07-11T06:20:47;17.80;99.90
14188;DHT22;7175;51.978;5.330;2022-07-11T06:23:16;17.90;99.90
14188;DHT22;7175;51.978;5.330;2022-07-11T06:25:46;17.90;99.90
14188;DHT22;7175;51.978;5.330;2022-07-11T06:28:23;18.00;99.90
14188;DHT22;7175;51.978;5.330;2022-07-11T06:31:00;18.00;99.90
14188;DHT22;7175;51.978;5.330;2022-07-11T06:33:36;18.10;99.90
14188;DHT22;7175;51.978;5.330;2022-07-11T06:36:24;18.20;99.90
14188;DHT22;7175;51.978;5.330;2022-07-11T06:38:55;18.40;99.90
14188;DHT22;7175;51.978;5.330;2022-07-11T06:41:26;18.50;99.90
14188;DHT22;7175;51.978;5.330;2022-07-11T06:43:56;18.40;99.90
14188;DHT22;7175;51.978;5.330;2022-07-11T06:46:24;18.30;99.90
14188;DHT22;7175;51.978;5.330;2022-07-11T06:48:56;18.50;99.90
14188;DHT22;7175;51.978;5.330;2022-07-11T06:51:28;18.60;99.90
14188;DHT22;7175;51.978;5.330;2022-07-11T06:53:58;18.50;99.90
14188;DHT22;7175;51.978;5.330;2022-07-11T06:56:26;18.50;99.90
14188;DHT22;7175;51.978;5.330;2022-07-11T06:59:13;18.60;99.90
14188;DHT22;7175;51.978;5.330;2022-07-11T07:01:51;18.60;99.90
14188;DHT22;7175;51.978;5.330;2022-07-11T07:04:20;18.60;99.90
14188;DHT22;7175;51.978;5.330;2022-07-11T07:06:51;18.60;99.90
14188;DHT22;7175;51.978;5.330;2022-07-11T07:09:37;18.80;99.90
14188;DHT22;7175;51.978;5.330;2022-07-11T07:12:07;18.60;99.90
14188;DHT22;7175;51.978;5.330;2022-07-11T07:14:35;18.80;99.90
14188;DHT22;7175;51.978;5.330;2022-07-11T07:17:29;18.80;99.90
14188;DHT22;7175;51.978;5.330;2022-07-11T07:19:58;18.70;99.90
14188;DHT22;7175;51.978;5.330;2022-07-11T07:22:30;18.70;99.90
14188;DHT22;7175;51.978;5.330;2022-07-11T07:24:59;18.70;99.90
14188;DHT22;7175;51.978;5.330;2022-07-11T07:27:28;18.60;99.90
14188;DHT22;7175;51.978;5.330;2022-07-11T07:29:56;19.10;99.90
14188;DHT22;7175;51.978;5.330;2022-07-11T07:32:25;19.30;99.90
14188;DHT22;7175;51.978;5.330;2022-07-11T07:34:54;19.20;99.90
14188;DHT22;7175;51.978;5.330;2022-07-11T07:37:24;19.10;99.90
14188;DHT22;7175;51.978;5.330;2022-07-11T07:39:59;19.20;99.90
14188;DHT22;7175;51.978;5.330;2022-07-11T07:42:29;19.20;99.90
14188;DHT22;7175;51.978;5.330;2022-07-11T07:45:05;19.10;99.90
14188;DHT22;7175;51.978;5.330;2022-07-11T07:47:36;19.10;99.90
14188;DHT22;7175;51.978;5.330;2022-07-11T07:50:05;19.20;99.90
14188;DHT22;7175;51.978;5.330;2022-07-11T07:52:34;19.20;99.90
14188;DHT22;7175;51.978;5.330;2022-07-11T07:55:05;19.30;99.90
14188;DHT22;7175;51.978;5.330;2022-07-11T07:57:34;19.60;99.90
14188;DHT22;7175;51.978;5.330;2022-07-11T08:00:03;19.80;99.90
14188;DHT22;7175;51.978;5.330;2022-07-11T08:02:49;19.80;99.90
14188;DHT22;7175;51.978;5.330;2022-07-11T08:05:18;20.00;99.90
14188;DHT22;7175;51.978;5.330;2022-07-11T08:07:48;20.10;99.90
14188;DHT22;7175;51.978;5.330;2022-07-11T08:10:24;19.90;99.90
14188;DHT22;7175;51.978;5.330;2022-07-11T08:12:52;20.00;99.90
14188;DHT22;7175;51.978;5.330;2022-07-11T08:15:22;20.00;99.90
14188;DHT22;7175;51.978;5.330;2022-07-11T08:17:51;20.10;99.90
14188;DHT22;7175;51.978;5.330;2022-07-11T08:20:21;20.10;99.90
14188;DHT22;7175;51.978;5.330;2022-07-11T08:22:50;20.00;99.90
14188;DHT22;7175;51.978;5.330;2022-07-11T08:25:24;20.20;99.90
14188;DHT22;7175;51.978;5.330;2022-07-11T08:27:52;20.30;99.90
14188;DHT22;7175;51.978;5.330;2022-07-11T08:30:23;20.20;99.90
14188;DHT22;7175;51.978;5.330;2022-07-11T08:32:52;20.20;99.90
14188;DHT22;7175;51.978;5.330;2022-07-11T08:35:20;20.20;99.90
14188;DHT22;7175;51.978;5.330;2022-07-11T08:37:49;20.30;99.90
14188;DHT22;7175;51.978;5.330;2022-07-11T08:40:19;20.50;99.90
14188;DHT22;7175;51.978;5.330;2022-07-11T08:42:49;20.50;99.90
14188;DHT22;7175;51.978;5.330;2022-07-11T08:45:17;20.60;99.90
14188;DHT22;7175;51.978;5.330;2022-07-11T08:47:47;20.60;99.90
14188;DHT22;7175;51.978;5.330;2022-07-11T08:50:16;20.80;99.90
14188;DHT22;7175;51.978;5.330;2022-07-11T08:52:44;20.80;99.90
14188;DHT22;7175;51.978;5.330;2022-07-11T08:55:15;20.70;99.90
14188;DHT22;7175;51.978;5.330;2022-07-11T08:57:43;20.90;99.90
14188;DHT22;7175;51.978;5.330;2022-07-11T09:00:14;21.00;99.90
14188;DHT22;7175;51.978;5.330;2022-07-11T09:02:47;21.40;99.90
14188;DHT22;7175;51.978;5.330;2022-07-11T09:05:16;21.30;99.90
14188;DHT22;7175;51.978;5.330;2022-07-11T09:07:47;20.70;99.90
14188;DHT22;7175;51.978;5.330;2022-07-11T09:10:17;20.60;99.90
14188;DHT22;7175;51.978;5.330;2022-07-11T09:12:59;20.80;99.90
14188;DHT22;7175;51.978;5.330;2022-07-11T09:15:37;21.20;99.90
14188;DHT22;7175;51.978;5.330;2022-07-11T09:18:28;21.40;99.90
14188;DHT22;7175;51.978;5.330;2022-07-11T09:21:01;21.60;99.90
14188;DHT22;7175;51.978;5.330;2022-07-11T09:23:49;21.70;99.90
14188;DHT22;7175;51.978;5.330;2022-07-11T09:26:39;21.60;99.90
14188;DHT22;7175;51.978;5.330;2022-07-11T09:29:09;21.60;99.90
14188;DHT22;7175;51.978;5.330;2022-07-11T09:31:44;21.50;99.90
14188;DHT22;7175;51.978;5.330;2022-07-11T09:34:15;21.50;99.90
14188;DHT22;7175;51.978;5.330;2022-07-11T09:36:47;21.60;99.90
14188;DHT22;7175;51.978;5.330;2022-07-11T09:39:17;21.50;99.90
14188;DHT22;7175;51.978;5.330;2022-07-11T09:41:47;21.40;99.90
14188;DHT22;7175;51.978;5.330;2022-07-11T09:44:18;21.20;99.90
14188;DHT22;7175;51.978;5.330;2022-07-11T09:46:49;21.20;99.90
14188;DHT22;7175;51.978;5.330;2022-07-11T09:49:29;21.40;99.90
14188;DHT22;7175;51.978;5.330;2022-07-11T09:52:07;21.50;99.90
14188;DHT22;7175;51.978;5.330;2022-07-11T09:54:52;21.50;99.90
14188;DHT22;7175;51.978;5.330;2022-07-11T09:57:29;21.30;99.90
14188;DHT22;7175;51.978;5.330;2022-07-11T09:59:58;20.90;99.90
14188;DHT22;7175;51.978;5.330;2022-07-11T10:02:30;20.80;99.90
14188;DHT22;7175;51.978;5.330;2022-07-11T10:05:06;20.80;99.90
14188;DHT22;7175;51.978;5.330;2022-07-11T10:07:36;20.90;99.90
14188;DHT22;7175;51.978;5.330;2022-07-11T10:10:07;20.80;99.90
14188;DHT22;7175;51.978;5.330;2022-07-11T10:12:37;21.00;99.90
14188;DHT22;7175;51.978;5.330;2022-07-11T10:15:08;21.10;99.90
14188;DHT22;7175;51.978;5.330;2022-07-11T10:17:45;21.40;99.90
14188;DHT22;7175;51.978;5.330;2022-07-11T10:20:26;21.40;99.90
14188;DHT22;7175;51.978;5.330;2022-07-11T10:23:15;21.60;99.90
14188;DHT22;7175;51.978;5.330;2022-07-11T10:26:01;21.50;99.90
14188;DHT22;7175;51.978;5.330;2022-07-11T10:28:41;21.50;99.90
14188;DHT22;7175;51.978;5.330;2022-07-11T10:31:19;21.40;99.90
14188;DHT22;7175;51.978;5.330;2022-07-11T10:34:05;21.60;99.90
14188;DHT22;7175;51.978;5.330;2022-07-11T10:36:40;21.90;99.90
14188;DHT22;7175;51.978;5.330;2022-07-11T10:39:15;21.80;99.90
14188;DHT22;7175;51.978;5.330;2022-07-11T10:41:45;21.70;99.90
14188;DHT22;7175;51.978;5.330;2022-07-11T10:44:13;22.00;99.90
14188;DHT22;7175;51.978;5.330;2022-07-11T10:46:44;22.30;99.90
14188;DHT22;7175;51.978;5.330;2022-07-11T10:49:25;22.50;99.90
14188;DHT22;7175;51.978;5.330;2022-07-11T10:52:07;22.30;99.90
14188;DHT22;7175;51.978;5.330;2022-07-11T10:55:07;22.40;99.90
14188;DHT22;7175;51.978;5.330;2022-07-11T10:57:51;22.50;99.90
14188;DHT22;7175;51.978;5.330;2022-07-11T11:00:24;22.50;99.90
14188;DHT22;7175;51.978;5.330;2022-07-11T11:03:09;22.50;99.90
14188;DHT22;7175;51.978;5.330;2022-07-11T11:05:49;22.70;99.90
14188;DHT22;7175;51.978;5.330;2022-07-11T11:08:44;22.30;99.90
14188;DHT22;7175;51.978;5.330;2022-07-11T11:11:35;22.20;99.90
14188;DHT22;7175;51.978;5.330;2022-07-11T11:14:27;22.00;99.90
14188;DHT22;7175;51.978;5.330;2022-07-11T11:17:35;22.10;99.90
14188;DHT22;7175;51.978;5.330;2022-07-11T11:20:04;22.20;99.90
14188;DHT22;7175;51.978;5.330;2022-07-11T11:22:35;22.30;99.90
14188;DHT22;7175;51.978;5.330;2022-07-11T11:25:06;22.40;99.90
14188;DHT22;7175;51.978;5.330;2022-07-11T11:28:03;22.50;99.90
14188;DHT22;7175;51.978;5.330;2022-07-11T11:30:32;22.60;99.90
14188;DHT22;7175;51.978;5.330;2022-07-11T11:33:12;22.80;99.90
14188;DHT22;7175;51.978;5.330;2022-07-11T11:35:43;22.80;99.90
14188;DHT22;7175;51.978;5.330;2022-07-11T11:38:13;22.60;99.90
14188;DHT22;7175;51.978;5.330;2022-07-11T11:40:47;22.60;99.90
14188;DHT22;7175;51.978;5.330;2022-07-11T11:43:18;22.70;99.90
14188;DHT22;7175;51.978;5.330;2022-07-11T11:45:49;22.80;99.90
14188;DHT22;7175;51.978;5.330;2022-07-11T11:48:28;22.70;99.90
14188;DHT22;7175;51.978;5.330;2022-07-11T11:51:00;22.60;99.90
14188;DHT22;7175;51.978;5.330;2022-07-11T11:53:35;22.40;99.90
14188;DHT22;7175;51.978;5.330;2022-07-11T11:56:12;22.30;99.90
14188;DHT22;7175;51.978;5.330;2022-07-11T11:58:43;22.50;99.90
14188;DHT22;7175;51.978;5.330;2022-07-11T12:01:20;22.70;99.90
14188;DHT22;7175;51.978;5.330;2022-07-11T12:03:54;22.60;99.90
14188;DHT22;7175;51.978;5.330;2022-07-11T12:06:24;22.90;99.90
14188;DHT22;7175;51.978;5.330;2022-07-11T12:09:00;23.00;99.90
14188;DHT22;7175;51.978;5.330;2022-07-11T12:11:37;22.80;99.90
14188;DHT22;7175;51.978;5.330;2022-07-11T12:14:06;22.60;99.90
14188;DHT22;7175;51.978;5.330;2022-07-11T12:16:40;22.40;99.90
14188;DHT22;7175;51.978;5.330;2022-07-11T12:19:22;22.70;99.90
14188;DHT22;7175;51.978;5.330;2022-07-11T12:21:52;22.90;99.90
14188;DHT22;7175;51.978;5.330;2022-07-11T12:24:26;22.80;99.90
14188;DHT22;7175;51.978;5.330;2022-07-11T12:26:55;22.80;99.90
14188;DHT22;7175;51.978;5.330;2022-07-11T12:29:27;22.80;99.90
14188;DHT22;7175;51.978;5.330;2022-07-11T12:31:58;23.00;99.90
14188;DHT22;7175;51.978;5.330;2022-07-11T12:34:42;23.00;99.90
14188;DHT22;7175;51.978;5.330;2022-07-11T12:37:13;22.80;99.90
14188;DHT22;7175;51.978;5.330;2022-07-11T12:39:49;22.70;99.90
14188;DHT22;7175;51.978;5.330;2022-07-11T12:42:28;22.90;99.90
14188;DHT22;7175;51.978;5.330;2022-07-11T12:45:00;23.30;99.90
14188;DHT22;7175;51.978;5.330;2022-07-11T12:47:37;23.30;99.90
14188;DHT22;7175;51.978;5.330;2022-07-11T12:50:13;23.70;99.90
14188;DHT22;7175;51.978;5.330;2022-07-11T12:52:51;23.90;99.90
14188;DHT22;7175;51.978;5.330;2022-07-11T12:55:23;24.00;99.90
14188;DHT22;7175;51.978;5.330;2022-07-11T12:58:04;23.90;99.90
14188;DHT22;7175;51.978;5.330;2022-07-11T13:00:54;24.20;99.90
14188;DHT22;7175;51.978;5.330;2022-07-11T13:03:27;25.50;99.90
14188;DHT22;7175;51.978;5.330;2022-07-11T13:06:00;26.40;99.90
14188;DHT22;7175;51.978;5.330;2022-07-11T13:08:32;25.90;99.90
14188;DHT22;7175;51.978;5.330;2022-07-11T13:11:17;26.10;99.90
14188;DHT22;7175;51.978;5.330;2022-07-11T13:13:48;25.80;99.90
14188;DHT22;7175;51.978;5.330;2022-07-11T13:16:18;25.40;99.90
14188;DHT22;7175;51.978;5.330;2022-07-11T13:18:49;24.70;99.90
14188;DHT22;7175;51.978;5.330;2022-07-11T13:21:18;24.80;99.90
14188;DHT22;7175;51.978;5.330;2022-07-11T13:23:47;24.40;99.90
14188;DHT22;7175;51.978;5.330;2022-07-11T13:26:19;24.40;99.90
14188;DHT22;7175;51.978;5.330;2022-07-11T13:28:50;24.30;99.90
14188;DHT22;7175;51.978;5.330;2022-07-11T13:31:23;24.40;99.90
14188;DHT22;7175;51.978;5.330;2022-07-11T13:33:54;24.40;99.90
14188;DHT22;7175;51.978;5.330;2022-07-11T13:36:23;24.50;99.90
14188;DHT22;7175;51.978;5.330;2022-07-11T13:38:51;24.60;99.90
14188;DHT22;7175;51.978;5.330;2022-07-11T13:41:22;25.70;99.90
14188;DHT22;7175;51.978;5.330;2022-07-11T13:44:03;26.40;99.90
14188;DHT22;7175;51.978;5.330;2022-07-11T13:46:31;27.40;99.90
14188;DHT22;7175;51.978;5.330;2022-07-11T13:49:01;27.60;99.90
14188;DHT22;7175;51.978;5.330;2022-07-11T13:51:29;27.30;99.90
14188;DHT22;7175;51.978;5.330;2022-07-11T13:53:58;27.30;99.90
14188;DHT22;7175;51.978;5.330;2022-07-11T13:56:28;27.10;99.90
14188;DHT22;7175;51.978;5.330;2022-07-11T13:58:57;26.60;99.90
14188;DHT22;7175;51.978;5.330;2022-07-11T14:01:26;26.10;99.90
14188;DHT22;7175;51.978;5.330;2022-07-11T14:04:00;25.00;99.90
14188;DHT22;7175;51.978;5.330;2022-07-11T14:06:28;23.80;99.90
14188;DHT22;7175;51.978;5.330;2022-07-11T14:09:18;23.90;99.90
14188;DHT22;7175;51.978;5.330;2022-07-11T14:11:47;25.50;99.90
14188;DHT22;7175;51.978;5.330;2022-07-11T14:14:16;25.90;99.90
14188;DHT22;7175;51.978;5.330;2022-07-11T14:16:45;27.00;99.90
14188;DHT22;7175;51.978;5.330;2022-07-11T14:19:17;27.30;99.90
14188;DHT22;7175;51.978;5.330;2022-07-11T14:21:46;27.20;99.90
14188;DHT22;7175;51.978;5.330;2022-07-11T14:24:19;25.70;99.90
14188;DHT22;7175;51.978;5.330;2022-07-11T14:26:50;25.20;99.90
14188;DHT22;7175;51.978;5.330;2022-07-11T14:29:18;24.60;99.90
14188;DHT22;7175;51.978;5.330;2022-07-11T14:31:51;25.40;99.90
14188;DHT22;7175;51.978;5.330;2022-07-11T14:34:19;25.20;99.90
14188;DHT22;7175;51.978;5.330;2022-07-11T14:36:48;25.90;99.90
14188;DHT22;7175;51.978;5.330;2022-07-11T14:39:21;26.30;99.90
14188;DHT22;7175;51.978;5.330;2022-07-11T14:41:53;27.20;99.90
14188;DHT22;7175;51.978;5.330;2022-07-11T14:44:38;27.80;99.80
14188;DHT22;7175;51.978;5.330;2022-07-11T14:47:14;26.80;98.70
14188;DHT22;7175;51.978;5.330;2022-07-11T14:49:43;26.50;99.90
14188;DHT22;7175;51.978;5.330;2022-07-11T14:52:13;25.90;99.90
14188;DHT22;7175;51.978;5.330;2022-07-11T14:54:49;25.20;99.90
14188;DHT22;7175;51.978;5.330;2022-07-11T14:57:19;24.90;99.90
14188;DHT22;7175;51.978;5.330;2022-07-11T14:59:48;24.60;99.90
14188;DHT22;7175;51.978;5.330;2022-07-11T15:02:20;24.10;99.90
14188;DHT22;7175;51.978;5.330;2022-07-11T15:05:04;24.40;99.90
14188;DHT22;7175;51.978;5.330;2022-07-11T15:07:38;24.90;99.90
14188;DHT22;7175;51.978;5.330;2022-07-11T15:10:25;24.50;99.90
14188;DHT22;7175;51.978;5.330;2022-07-11T15:13:19;25.40;99.90
14188;DHT22;7175;51.978;5.330;2022-07-11T15:15:48;25.50;99.90
14188;DHT22;7175;51.978;5.330;2022-07-11T15:18:16;24.70;99.90
14188;DHT22;7175;51.978;5.330;2022-07-11T15:20:45;24.30;99.90
14188;DHT22;7175;51.978;5.330;2022-07-11T15:23:15;24.40;99.90
14188;DHT22;7175;51.978;5.330;2022-07-11T15:25:43;24.30;99.90
14188;DHT22;7175;51.978;5.330;2022-07-11T15:28:12;24.40;99.90
14188;DHT22;7175;51.978;5.330;2022-07-11T15:30:48;24.40;99.90
14188;DHT22;7175;51.978;5.330;2022-07-11T15:33:16;23.90;99.90
14188;DHT22;7175;51.978;5.330;2022-07-11T15:35:48;23.90;99.90
14188;DHT22;7175;51.978;5.330;2022-07-11T15:38:18;24.10;99.90
14188;DHT22;7175;51.978;5.330;2022-07-11T15:40:48;24.20;99.90
14188;DHT22;7175;51.978;5.330;2022-07-11T15:43:22;24.40;99.90
14188;DHT22;7175;51.978;5.330;2022-07-11T15:46:00;24.20;99.90
14188;DHT22;7175;51.978;5.330;2022-07-11T15:48:32;24.30;99.90
14188;DHT22;7175;51.978;5.330;2022-07-11T15:51:03;23.90;99.90
14188;DHT22;7175;51.978;5.330;2022-07-11T15:53:33;24.00;99.90
14188;DHT22;7175;51.978;5.330;2022-07-11T15:56:02;24.00;99.90
14188;DHT22;7175;51.978;5.330;2022-07-11T15:58:31;24.20;99.90
14188;DHT22;7175;51.978;5.330;2022-07-11T16:01:01;24.00;99.90
14188;DHT22;7175;51.978;5.330;2022-07-11T16:03:30;23.70;99.90
14188;DHT22;7175;51.978;5.330;2022-07-11T16:06:11;23.70;99.90
14188;DHT22;7175;51.978;5.330;2022-07-11T16:08:39;23.80;99.90
14188;DHT22;7175;51.978;5.330;2022-07-11T16:11:10;23.40;99.90
14188;DHT22;7175;51.978;5.330;2022-07-11T16:13:38;23.60;99.90
14188;DHT22;7175;51.978;5.330;2022-07-11T16:16:09;23.60;99.90
14188;DHT22;7175;51.978;5.330;2022-07-11T16:18:39;23.60;99.90
14188;DHT22;7175;51.978;5.330;2022-07-11T16:21:08;23.70;99.90
14188;DHT22;7175;51.978;5.330;2022-07-11T16:23:38;23.60;99.90
14188;DHT22;7175;51.978;5.330;2022-07-11T16:26:13;23.60;99.90